createdAt,value
2022-08-02T00:13:45.745Z,19.82
2022-08-02T00:16:59.198Z,19.88
2022-08-02T00:33:01.263Z,19.93
2022-08-02T00:40:21.290Z,19.88
2022-08-02T00:43:06.258Z,19.89
2022-08-02T00:46:01.953Z,19.88
2022-08-02T00:48:27.483Z,19.88
2022-08-02T00:50:56.314Z,19.85
2022-08-02T00:53:23.600Z,19.88
2022-08-02T00:55:51.476Z,19.90
2022-08-02T00:58:20.403Z,19.91
2022-08-02T01:00:47.701Z,19.91
2022-08-02T01:03:15.094Z,19.89
2022-08-02T01:06:02.438Z,19.87
2022-08-02T01:08:31.776Z,19.84
2022-08-02T01:10:59.906Z,19.82
2022-08-02T01:13:27.851Z,19.78
2022-08-02T01:16:02.323Z,19.73
2022-08-02T01:18:38.415Z,19.68
2022-08-02T01:21:31.082Z,19.62
2022-08-02T01:24:12.280Z,19.54
2022-08-02T01:27:03.013Z,19.46
2022-08-02T01:29:34.251Z,19.38
2022-08-02T01:32:14.819Z,19.34
2022-08-02T01:34:56.339Z,19.31
2022-08-02T01:37:41.051Z,19.27
2022-08-02T01:40:17.205Z,19.23
2022-08-02T01:42:49.492Z,19.18
2022-08-02T01:45:20.088Z,19.15
2022-08-02T01:47:48.717Z,19.15
2022-08-02T01:50:18.521Z,19.13
2022-08-02T01:52:53.536Z,19.07
2022-08-02T01:55:33.622Z,18.99
2022-08-02T01:58:14.400Z,18.97
2022-08-02T02:00:44.028Z,18.97
2022-08-02T02:03:20.215Z,18.98
2022-08-02T02:05:49.850Z,19.00
2022-08-02T02:08:39.863Z,19.02
2022-08-02T02:12:06.075Z,18.99
2022-08-02T02:14:00.158Z,18.97
2022-08-02T02:16:29.031Z,18.98
2022-08-02T02:18:57.499Z,18.97
2022-08-02T02:21:25.560Z,18.95
2022-08-02T02:23:53.879Z,18.93
2022-08-02T02:26:30.986Z,18.90
2022-08-02T02:29:04.070Z,18.87
2022-08-02T02:31:36.249Z,18.84
2022-08-02T02:34:32.375Z,18.80
2022-08-02T02:37:04.731Z,18.77
2022-08-02T02:39:33.430Z,18.74
2022-08-02T02:42:03.882Z,18.71
2022-08-02T02:44:32.867Z,18.68
2022-08-02T02:47:02.071Z,18.67
2022-08-02T02:49:32.664Z,18.67
2022-08-02T02:52:00.697Z,18.65
2022-08-02T02:54:33.991Z,18.63
2022-08-02T02:57:06.009Z,18.59
2022-08-02T02:59:49.374Z,18.56
2022-08-02T03:02:18.558Z,18.54
2022-08-02T03:04:56.754Z,18.53
2022-08-02T03:07:27.712Z,18.51
2022-08-02T03:09:55.759Z,18.50
2022-08-02T03:12:30.289Z,18.49
2022-08-02T03:15:01.820Z,18.48
2022-08-02T03:17:43.238Z,18.46
2022-08-02T03:20:20.528Z,18.46
2022-08-02T03:22:48.210Z,18.46
2022-08-02T03:25:17.206Z,18.44
2022-08-02T03:27:45.237Z,18.44
2022-08-02T03:30:13.967Z,18.45
2022-08-02T03:32:46.288Z,18.46
2022-08-02T03:35:23.460Z,18.45
2022-08-02T03:37:56.426Z,18.46
2022-08-02T03:40:24.934Z,18.45
2022-08-02T03:42:54.109Z,18.45
2022-08-02T03:45:22.426Z,18.47
2022-08-02T03:47:50.274Z,18.48
2022-08-02T03:50:19.474Z,18.48
2022-08-02T03:52:47.671Z,18.50
2022-08-02T03:55:15.070Z,18.52
2022-08-02T03:57:43.485Z,18.54
2022-08-02T04:00:18.047Z,18.55
2022-08-02T04:02:45.420Z,18.59
2022-08-02T04:05:14.281Z,18.62
2022-08-02T04:08:02.618Z,18.66
2022-08-02T04:10:31.155Z,18.69
2022-08-02T04:12:59.184Z,18.73
2022-08-02T04:15:26.369Z,18.76
2022-08-02T04:17:59.737Z,18.80
2022-08-02T04:20:33.947Z,18.86
2022-08-02T04:23:07.109Z,18.93
2022-08-02T04:25:40.178Z,19.00
2022-08-02T04:28:17.713Z,19.08
2022-08-02T04:30:49.680Z,19.74
2022-08-02T04:33:18.228Z,21.18
2022-08-02T04:35:45.600Z,22.60
2022-08-02T04:38:14.824Z,23.85
2022-08-02T04:40:51.521Z,24.90
2022-08-02T04:43:19.897Z,25.92
2022-08-02T04:45:51.167Z,26.71
2022-08-02T04:48:19.170Z,26.69
2022-08-02T04:50:46.617Z,25.84
2022-08-02T04:53:13.994Z,25.77
2022-08-02T04:55:41.547Z,26.54
2022-08-02T04:58:24.115Z,27.22
2022-08-02T05:00:56.884Z,27.88
2022-08-02T05:03:24.937Z,28.38
2022-08-02T05:05:52.090Z,28.68
2022-08-02T05:08:19.597Z,28.89
2022-08-02T05:10:46.851Z,29.02
2022-08-02T05:13:14.118Z,29.32
2022-08-02T05:15:41.431Z,29.54
2022-08-02T05:18:09.381Z,29.57
2022-08-02T05:20:36.556Z,29.65
2022-08-02T05:23:04.103Z,29.88
2022-08-02T05:25:31.459Z,30.22
2022-08-02T05:27:58.623Z,30.41
2022-08-02T05:30:26.021Z,30.48
2022-08-02T05:32:53.866Z,30.54
2022-08-02T05:35:22.721Z,30.66
2022-08-02T05:37:51.227Z,30.88
2022-08-02T05:40:25.647Z,31.11
2022-08-02T05:42:54.658Z,31.30
2022-08-02T05:45:22.885Z,31.72
2022-08-02T05:47:50.964Z,31.93
2022-08-02T05:50:19.181Z,31.90
2022-08-02T05:52:51.630Z,31.91
2022-08-02T05:55:26.831Z,31.99
2022-08-02T05:58:15.871Z,32.00
2022-08-02T06:00:47.545Z,31.70
2022-08-02T06:03:20.637Z,30.85
2022-08-02T06:05:50.927Z,30.45
2022-08-02T06:08:21.222Z,30.92
2022-08-02T06:10:50.879Z,31.25
2022-08-02T06:13:17.977Z,31.02
2022-08-02T06:15:53.666Z,30.42
2022-08-02T06:18:27.586Z,29.60
2022-08-02T06:22:31.753Z,28.87
2022-08-02T06:23:57.714Z,28.42
2022-08-02T06:26:29.130Z,28.12
2022-08-02T06:28:58.036Z,27.96
2022-08-02T06:31:25.977Z,27.99
2022-08-02T06:33:53.970Z,28.23
2022-08-02T06:36:36.156Z,28.13
2022-08-02T06:39:14.335Z,28.74
2022-08-02T06:41:44.006Z,30.18
2022-08-02T06:44:45.631Z,31.06
2022-08-02T06:47:12.353Z,31.36
2022-08-02T06:49:52.108Z,31.24
2022-08-02T06:52:30.740Z,31.88
2022-08-02T06:54:59.963Z,32.15
2022-08-02T06:57:28.377Z,32.53
2022-08-02T06:59:56.213Z,33.15
2022-08-02T07:02:24.571Z,33.60
2022-08-02T07:04:51.996Z,33.97
2022-08-02T07:07:19.547Z,34.33
2022-08-02T07:10:00.858Z,34.63
2022-08-02T07:12:31.207Z,34.73
2022-08-02T07:15:00.724Z,34.85
2022-08-02T07:17:29.229Z,34.90
2022-08-02T07:19:57.274Z,34.93
2022-08-02T07:22:28.397Z,34.86
2022-08-02T07:24:57.684Z,34.66
2022-08-02T07:27:25.473Z,34.49
2022-08-02T07:29:54.493Z,34.57
2022-08-02T07:32:24.558Z,34.73
2022-08-02T07:34:55.163Z,35.03
2022-08-02T07:37:53.789Z,35.07
2022-08-02T07:40:19.857Z,35.30
2022-08-02T07:42:52.680Z,35.26
2022-08-02T07:45:22.316Z,34.65
2022-08-02T07:48:10.918Z,34.68
2022-08-02T07:50:43.365Z,34.66
2022-08-02T07:53:10.730Z,34.84
2022-08-02T07:55:40.328Z,35.08
2022-08-02T07:58:13.197Z,35.32
2022-08-02T08:00:43.483Z,35.29
2022-08-02T08:03:11.211Z,35.28
2022-08-02T08:05:38.803Z,35.25
2022-08-02T08:08:06.361Z,35.40
2022-08-02T08:10:33.993Z,35.28
2022-08-02T08:13:02.059Z,35.37
2022-08-02T08:15:29.998Z,35.67
2022-08-02T08:17:57.375Z,35.70
2022-08-02T08:20:24.863Z,35.29
2022-08-02T08:22:52.867Z,34.07
2022-08-02T08:25:20.108Z,32.80
2022-08-02T08:27:51.825Z,32.68
2022-08-02T08:30:22.467Z,33.08
2022-08-02T08:32:50.442Z,33.48
2022-08-02T08:35:17.834Z,33.81
2022-08-02T08:37:45.769Z,34.07
2022-08-02T08:40:19.574Z,34.06
2022-08-02T08:42:47.942Z,33.39
2022-08-02T08:45:17.549Z,32.45
2022-08-02T08:47:51.004Z,32.16
2022-08-02T08:50:25.422Z,31.80
2022-08-02T08:53:00.253Z,31.79
2022-08-02T08:55:28.735Z,31.86
2022-08-02T08:57:59.171Z,31.59
2022-08-02T09:00:27.132Z,31.42
2022-08-02T09:02:54.792Z,31.25
2022-08-02T09:05:26.856Z,30.86
2022-08-02T09:07:54.612Z,30.44
2022-08-02T09:10:54.964Z,29.74
2022-08-02T09:13:38.811Z,29.32
2022-08-02T09:16:14.953Z,29.44
2022-08-02T09:18:45.762Z,29.58
2022-08-02T09:21:15.842Z,29.73
2022-08-02T09:23:47.789Z,29.44
2022-08-02T09:26:22.101Z,29.02
2022-08-02T09:28:53.086Z,29.02
2022-08-02T09:31:22.439Z,29.13
2022-08-02T09:33:58.868Z,29.52
2022-08-02T09:36:36.516Z,30.08
2022-08-02T09:39:07.545Z,30.74
2022-08-02T09:41:37.608Z,31.26
2022-08-02T09:44:07.124Z,31.25
2022-08-02T09:46:39.261Z,30.57
2022-08-02T09:49:17.378Z,30.21
2022-08-02T09:51:55.089Z,30.40
2022-08-02T09:54:33.138Z,30.65
2022-08-02T09:57:02.475Z,30.49
2022-08-02T09:59:30.675Z,30.18
2022-08-02T10:02:02.205Z,29.68
2022-08-02T10:04:34.360Z,29.67
2022-08-02T10:07:06.839Z,29.67
2022-08-02T10:09:34.644Z,29.81
2022-08-02T10:12:03.477Z,30.16
2022-08-02T10:14:37.465Z,30.45
2022-08-02T10:17:06.341Z,30.48
2022-08-02T10:20:03.428Z,30.36
2022-08-02T10:22:25.306Z,29.97
2022-08-02T10:24:54.085Z,29.51
2022-08-02T10:27:24.891Z,29.21
2022-08-02T10:29:57.457Z,29.07
2022-08-02T10:32:37.365Z,28.97
2022-08-02T10:35:19.877Z,28.83
2022-08-02T10:37:56.946Z,28.79
2022-08-02T10:40:28.383Z,28.74
2022-08-02T10:43:00.868Z,28.55
2022-08-02T10:45:28.956Z,28.45
2022-08-02T10:48:04.164Z,28.45
2022-08-02T10:50:56.495Z,28.56
2022-08-02T10:53:31.443Z,28.69
2022-08-02T10:56:01.547Z,28.69
2022-08-02T10:58:32.916Z,28.81
2022-08-02T11:01:06.485Z,28.99
2022-08-02T11:03:40.100Z,29.19
2022-08-02T11:06:25.956Z,29.26
2022-08-02T11:09:31.403Z,29.00
2022-08-02T11:12:03.149Z,28.93
2022-08-02T11:14:32.191Z,28.91
2022-08-02T11:17:00.991Z,28.94
2022-08-02T11:19:29.338Z,28.99
2022-08-02T11:22:02.126Z,28.97
2022-08-02T11:24:34.405Z,29.00
2022-08-02T11:27:03.435Z,28.93
2022-08-02T11:29:41.644Z,28.82
2022-08-02T11:32:17.497Z,28.69
2022-08-02T11:34:47.299Z,28.54
2022-08-02T11:37:37.963Z,28.26
2022-08-02T11:40:13.150Z,28.24
2022-08-02T11:42:53.247Z,28.21
2022-08-02T11:45:30.222Z,28.24
2022-08-02T11:47:57.853Z,28.21
2022-08-02T11:50:30.240Z,28.08
2022-08-02T11:52:58.362Z,27.93
2022-08-02T11:55:32.054Z,27.80
2022-08-02T11:58:05.919Z,27.69
2022-08-02T12:00:33.958Z,27.80
2022-08-02T12:03:01.827Z,27.99
2022-08-02T12:08:22.173Z,28.15
2022-08-02T12:10:52.838Z,28.19
2022-08-02T12:13:20.552Z,28.34
2022-08-02T12:15:48.079Z,28.41
2022-08-02T12:18:39.807Z,28.34
2022-08-02T12:21:26.814Z,28.14
2022-08-02T12:23:59.310Z,28.09
2022-08-02T12:26:29.405Z,28.10
2022-08-02T12:28:58.193Z,27.99
2022-08-02T12:31:56.028Z,27.90
2022-08-02T12:34:32.015Z,27.83
2022-08-02T12:37:05.378Z,27.78
2022-08-02T12:39:45.457Z,27.74
2022-08-02T12:42:15.110Z,27.72
2022-08-02T12:44:58.730Z,27.80
2022-08-02T12:47:35.772Z,27.96
2022-08-02T12:50:25.936Z,28.09
2022-08-02T12:53:30.476Z,28.26
2022-08-02T12:56:02.324Z,28.51
2022-08-02T12:58:31.514Z,28.58
2022-08-02T13:01:01.330Z,28.53
2022-08-02T13:04:10.816Z,28.45
2022-08-02T13:06:41.342Z,28.47
2022-08-02T13:09:13.256Z,28.58
2022-08-02T13:11:43.436Z,28.62
2022-08-02T13:14:12.894Z,28.68
2022-08-02T13:16:41.150Z,28.65
2022-08-02T13:19:08.731Z,28.68
2022-08-02T13:21:41.089Z,28.78
2022-08-02T13:24:38.156Z,28.87
2022-08-02T13:27:08.254Z,28.83
2022-08-02T13:29:38.390Z,28.82
2022-08-02T13:32:06.115Z,28.66
2022-08-02T13:34:33.387Z,28.53
2022-08-02T13:37:02.312Z,28.50
2022-08-02T13:39:29.603Z,28.56
2022-08-02T13:41:56.707Z,28.66
2022-08-02T13:44:24.252Z,28.62
2022-08-02T13:46:51.475Z,28.60
2022-08-02T13:49:20.181Z,28.70
2022-08-02T13:51:49.998Z,28.85
2022-08-02T13:54:17.559Z,28.96
2022-08-02T13:56:45.025Z,28.97
2022-08-02T13:59:54.749Z,28.78
2022-08-02T14:02:00.182Z,28.57
2022-08-02T14:04:30.449Z,28.49
2022-08-02T14:06:58.879Z,28.22
2022-08-02T14:09:27.177Z,28.01
2022-08-02T14:11:54.892Z,27.87
2022-08-02T14:14:24.128Z,27.75
2022-08-02T14:16:52.981Z,27.70
2022-08-02T14:19:21.776Z,27.74
2022-08-02T14:21:50.039Z,27.85
2022-08-02T14:24:20.017Z,27.93
2022-08-02T14:26:48.716Z,27.93
2022-08-02T14:29:17.199Z,27.95
2022-08-02T14:31:45.342Z,27.99
2022-08-02T14:34:13.433Z,28.07
2022-08-02T14:36:40.658Z,28.12
2022-08-02T14:39:07.986Z,28.20
2022-08-02T14:41:59.801Z,28.27
2022-08-02T14:44:24.791Z,28.30
2022-08-02T14:46:52.988Z,28.26
2022-08-02T14:49:25.579Z,28.19
2022-08-02T14:51:54.914Z,28.08
2022-08-02T14:54:28.302Z,27.94
2022-08-02T14:57:01.043Z,27.92
2022-08-02T14:59:28.655Z,27.90
2022-08-02T15:01:56.646Z,27.90
2022-08-02T15:04:25.474Z,27.92
2022-08-02T15:06:53.766Z,27.86
2022-08-02T15:09:22.112Z,27.82
2022-08-02T15:11:50.490Z,27.78
2022-08-02T15:14:21.871Z,27.72
2022-08-02T15:16:57.244Z,27.66
2022-08-02T15:19:50.366Z,27.69
2022-08-02T15:22:16.768Z,27.71
2022-08-02T15:24:46.943Z,27.59
2022-08-02T15:27:15.281Z,27.54
2022-08-02T15:29:44.552Z,27.49
2022-08-02T15:32:13.210Z,27.43
2022-08-02T15:34:40.845Z,27.42
2022-08-02T15:37:08.521Z,27.43
2022-08-02T15:39:36.245Z,27.46
2022-08-02T15:42:04.013Z,27.49
2022-08-02T15:44:31.755Z,27.50
2022-08-02T15:46:59.214Z,27.51
2022-08-02T15:49:26.846Z,27.47
2022-08-02T15:51:54.988Z,27.49
2022-08-02T15:54:22.693Z,27.43
2022-08-02T15:56:50.651Z,27.37
2022-08-02T15:59:18.226Z,27.39
2022-08-02T16:01:47.953Z,27.37
2022-08-02T16:04:16.158Z,27.34
2022-08-02T16:06:44.445Z,27.37
2022-08-02T16:09:11.955Z,27.37
2022-08-02T16:11:39.443Z,27.38
2022-08-02T16:14:07.514Z,27.31
2022-08-02T16:16:36.282Z,27.27
2022-08-02T16:19:46.656Z,27.29
2022-08-02T16:21:53.650Z,27.27
2022-08-02T16:24:21.205Z,27.26
2022-08-02T16:26:49.187Z,27.24
2022-08-02T16:29:19.395Z,27.20
2022-08-02T16:31:47.894Z,27.18
2022-08-02T16:34:16.529Z,27.17
2022-08-02T16:36:45.635Z,27.16
2022-08-02T16:39:12.932Z,27.14
2022-08-02T16:41:51.065Z,27.13
2022-08-02T16:44:29.184Z,27.15
2022-08-02T16:47:01.078Z,27.12
2022-08-02T16:50:04.577Z,27.07
2022-08-02T16:52:19.904Z,27.01
2022-08-02T16:54:49.391Z,26.98
2022-08-02T16:57:19.571Z,26.98
2022-08-02T17:02:51.948Z,26.94
2022-08-02T17:05:57.006Z,26.89
2022-08-02T17:08:54.653Z,26.86
2022-08-02T17:11:48.025Z,26.81
2022-08-02T17:14:55.008Z,26.77
2022-08-02T17:17:47.427Z,26.74
2022-08-02T17:20:33.194Z,26.72
2022-08-02T17:23:20.840Z,26.71
2022-08-02T17:26:13.386Z,26.68
2022-08-02T17:29:15.783Z,26.63
2022-08-02T17:32:14.960Z,26.57
2022-08-02T17:35:09.950Z,26.52
2022-08-02T17:38:09.115Z,26.47
2022-08-02T17:40:42.718Z,26.40
2022-08-02T17:43:14.504Z,26.35
2022-08-02T17:46:00.932Z,26.29
2022-08-02T17:48:50.035Z,26.21
2022-08-02T17:52:16.003Z,26.12
2022-08-02T17:54:07.494Z,26.05
2022-08-02T17:56:37.779Z,26.01
2022-08-02T17:59:30.757Z,25.96
2022-08-02T18:02:03.475Z,25.89
2022-08-02T18:04:32.308Z,25.83
2022-08-02T18:07:03.990Z,25.78
2022-08-02T18:09:32.325Z,25.73
2022-08-02T18:12:02.303Z,25.68
2022-08-02T18:14:30.005Z,25.62
2022-08-02T18:16:58.358Z,25.53
2022-08-02T18:22:14.498Z,25.35
2022-08-02T18:24:44.930Z,25.31
2022-08-02T18:27:12.807Z,25.27
2022-08-02T18:29:40.043Z,25.22
2022-08-02T18:32:11.692Z,25.16
2022-08-02T18:34:39.465Z,25.08
2022-08-02T18:37:07.234Z,25.02
2022-08-02T18:39:38.476Z,24.98
2022-08-02T18:42:06.014Z,24.92
2022-08-02T18:44:33.146Z,24.85
2022-08-02T18:47:01.708Z,24.81
2022-08-02T18:49:46.693Z,24.76
2022-08-02T18:52:15.874Z,24.69
2022-08-02T18:54:58.858Z,24.63
2022-08-02T18:58:01.782Z,24.57
2022-08-02T19:00:14.565Z,24.51
2022-08-02T19:02:42.342Z,24.46
2022-08-02T19:05:13.179Z,24.44
2022-08-02T19:07:49.802Z,24.40
2022-08-02T19:10:19.925Z,24.36
2022-08-02T19:12:47.241Z,24.33
2022-08-02T19:15:19.223Z,24.32
2022-08-02T19:17:53.556Z,24.28
2022-08-02T19:20:24.092Z,24.25
2022-08-02T19:22:53.762Z,24.20
2022-08-02T19:25:27.561Z,24.18
2022-08-02T19:27:56.055Z,24.15
2022-08-02T19:30:25.647Z,24.13
2022-08-02T19:32:59.325Z,24.09
2022-08-02T19:35:30.572Z,24.06
2022-08-02T19:38:10.004Z,24.02
2022-08-02T19:40:38.964Z,23.99
2022-08-02T19:44:27.475Z,23.95
2022-08-02T19:45:56.840Z,23.88
2022-08-02T19:48:25.379Z,23.82
2022-08-02T19:50:56.148Z,23.80
2022-08-02T19:53:48.188Z,23.77
2022-08-02T19:56:20.958Z,23.74
2022-08-02T19:58:54.810Z,23.68
2022-08-02T20:01:37.368Z,23.54
2022-08-02T20:04:13.042Z,23.37
2022-08-02T20:06:45.738Z,23.26
2022-08-02T20:09:16.657Z,23.21
2022-08-02T20:11:47.267Z,23.16
2022-08-02T20:14:26.906Z,23.07
2022-08-02T20:16:56.169Z,22.99
2022-08-02T20:19:29.571Z,22.95
2022-08-02T20:21:59.580Z,22.90
2022-08-02T20:24:29.508Z,22.85
2022-08-02T20:26:59.243Z,22.82
2022-08-02T20:29:43.368Z,22.85
2022-08-02T20:32:14.205Z,22.88
2022-08-02T20:34:41.711Z,22.92
2022-08-02T20:37:59.192Z,22.94
2022-08-02T20:39:56.657Z,22.95
2022-08-02T20:42:24.683Z,22.94
2022-08-02T20:44:53.677Z,22.94
2022-08-02T20:47:28.429Z,22.90
2022-08-02T20:50:31.704Z,22.88
2022-08-02T20:53:01.014Z,22.87
2022-08-02T20:58:21.505Z,22.85
2022-08-02T21:00:59.545Z,22.83
2022-08-02T21:03:38.875Z,22.77
2022-08-02T21:06:11.162Z,22.71
2022-08-02T21:08:46.216Z,22.61
2022-08-02T21:11:14.229Z,22.54
2022-08-02T21:16:29.599Z,22.50
2022-08-02T21:18:59.937Z,22.52
2022-08-02T21:21:29.710Z,22.52
2022-08-02T21:24:01.462Z,22.49
2022-08-02T21:26:30.629Z,22.45
2022-08-02T21:29:03.277Z,22.43
2022-08-02T21:31:35.493Z,22.43
2022-08-02T21:34:21.887Z,22.43
2022-08-02T21:36:52.932Z,22.43
2022-08-02T21:39:20.941Z,22.43
2022-08-02T21:41:49.084Z,22.43
2022-08-02T21:44:18.936Z,22.42
2022-08-02T21:46:49.464Z,22.39
2022-08-02T21:49:40.938Z,22.36
2022-08-02T21:52:10.151Z,22.29
2022-08-02T21:54:39.684Z,22.27
2022-08-02T21:57:15.189Z,22.24
2022-08-02T21:59:46.437Z,22.21
2022-08-02T22:02:14.349Z,22.19
2022-08-02T22:04:48.023Z,22.16
2022-08-02T22:07:23.993Z,22.13
2022-08-02T22:09:52.871Z,22.13
2022-08-02T22:12:20.983Z,22.12
2022-08-02T22:14:55.749Z,22.11
2022-08-02T22:17:46.815Z,22.12
2022-08-02T22:20:19.765Z,22.10
2022-08-02T22:22:50.542Z,22.06
2022-08-02T22:25:37.808Z,22.00
2022-08-02T22:28:39.446Z,21.94
2022-08-02T22:30:57.547Z,21.91
2022-08-02T22:34:00.299Z,21.89
2022-08-02T22:36:31.126Z,21.86
2022-08-02T22:38:59.736Z,21.83
2022-08-02T22:42:01.140Z,21.84
2022-08-02T22:44:18.423Z,21.87
2022-08-02T22:46:46.888Z,21.88
2022-08-02T22:49:38.051Z,21.90
2022-08-02T22:52:06.072Z,21.93
2022-08-02T22:54:34.548Z,21.92
2022-08-02T22:57:01.906Z,21.92
2022-08-02T22:58:50.119Z,26.98
2022-08-02T22:59:02.194Z,22.49
2022-08-02T22:59:05.858Z,22.87
2022-08-02T22:59:10.149Z,25.42
2022-08-02T22:59:39.052Z,21.90
2022-08-02T23:02:08.352Z,21.88
2022-08-02T23:04:36.466Z,21.87
2022-08-02T23:07:03.926Z,21.87
2022-08-02T23:09:31.895Z,21.86
2022-08-02T23:11:59.142Z,21.84
2022-08-02T23:14:26.500Z,21.84
2022-08-02T23:17:13.147Z,21.84
2022-08-02T23:19:53.035Z,21.80
2022-08-02T23:22:29.520Z,21.79
2022-08-02T23:24:58.850Z,21.75
2022-08-02T23:27:27.115Z,21.72
2022-08-02T23:29:55.079Z,21.70
2022-08-02T23:32:22.862Z,21.68
2022-08-02T23:34:54.373Z,21.66
2022-08-02T23:37:22.370Z,21.67
2022-08-02T23:39:50.436Z,21.67
2022-08-02T23:42:18.120Z,21.64
2022-08-02T23:44:45.458Z,21.60
2022-08-02T23:47:13.018Z,21.56
2022-08-02T23:49:41.002Z,21.50
2022-08-02T23:52:08.661Z,21.45
2022-08-02T23:54:35.933Z,21.39
2022-08-02T23:57:20.997Z,21.34
2022-08-02T23:59:50.628Z,21.32
